CPX667 Details

Departure: Daytona Beach International Airport (KDAB)
Arrival: Miami International Airport (KMIA)
Route: MYRA V3 MLB V437 PHK V267 BRIKL


Current Weather Information
KDAB 232253Z 08010G18KT 10SM SCT032 27/20 A3017 RMK AO2 SLP215 T02670200
KMIA 232253Z 06013G21KT 10SM SCT033 BKN045 28/19 A3007 RMK AO2 SLP183 T02830194